createdAt,value
2022-12-16T00:02:01.508Z,-2.32
2022-12-16T00:04:28.180Z,-2.32
2022-12-16T00:06:54.861Z,-2.27
2022-12-16T00:09:21.524Z,-2.16
2022-12-16T00:11:48.125Z,-2.07
2022-12-16T00:14:14.783Z,-2.03
2022-12-16T00:16:41.396Z,-2.05
2022-12-16T00:19:07.975Z,-2.03
2022-12-16T00:21:35.922Z,-2.02
2022-12-16T00:24:02.601Z,-2.04
2022-12-16T00:26:30.554Z,-2.06
2022-12-16T00:28:57.702Z,-2.10
2022-12-16T00:31:24.299Z,-2.14
2022-12-16T00:33:52.277Z,-2.13
2022-12-16T00:36:18.833Z,-2.15
2022-12-16T00:38:45.373Z,-2.16
2022-12-16T00:41:12.004Z,-2.15
2022-12-16T00:43:39.445Z,-2.13
2022-12-16T00:46:06.022Z,-2.10
2022-12-16T00:48:32.790Z,-2.04
2022-12-16T00:50:59.699Z,-1.99
2022-12-16T00:53:26.302Z,-1.94
2022-12-16T00:56:02.029Z,-1.94
2022-12-16T00:58:28.584Z,-1.94
2022-12-16T01:00:55.246Z,-1.98
2022-12-16T01:03:22.375Z,-2.00
2022-12-16T01:05:49.560Z,-2.05
2022-12-16T01:08:16.299Z,-2.08
2022-12-16T01:10:48.940Z,-2.11
2022-12-16T01:13:15.730Z,-2.15
2022-12-16T01:15:42.374Z,-2.16
2022-12-16T01:18:08.938Z,-2.17
2022-12-16T01:20:35.440Z,-2.13
2022-12-16T01:23:02.019Z,-2.11
2022-12-16T01:25:28.612Z,-2.10
2022-12-16T01:27:55.313Z,-2.09
2022-12-16T01:30:22.017Z,-2.07
2022-12-16T01:32:49.011Z,-2.03
2022-12-16T01:35:50.914Z,-2.02
2022-12-16T01:38:03.253Z,-2.01
2022-12-16T01:40:30.047Z,-2.00
2022-12-16T01:42:56.624Z,-1.97
2022-12-16T01:45:29.319Z,-1.93
2022-12-16T01:48:00.730Z,-1.93
2022-12-16T01:50:29.419Z,-1.94
2022-12-16T01:52:59.326Z,-1.94
2022-12-16T01:55:38.070Z,-1.92
2022-12-16T01:58:20.858Z,-1.89
2022-12-16T02:00:48.159Z,-1.86
2022-12-16T02:03:15.612Z,-1.80
2022-12-16T02:05:44.079Z,-1.85
2022-12-16T02:08:18.711Z,-1.97
2022-12-16T02:11:27.115Z,-1.96
2022-12-16T02:14:18.317Z,-1.90
2022-12-16T02:17:17.223Z,-1.92
2022-12-16T02:19:56.607Z,-1.93
2022-12-16T02:23:00.805Z,-1.95
2022-12-16T02:26:04.797Z,-1.94
2022-12-16T02:28:49.526Z,-1.94
2022-12-16T02:31:27.117Z,-1.94
2022-12-16T02:34:07.546Z,-1.88
2022-12-16T02:36:53.132Z,-1.84
2022-12-16T02:39:24.874Z,-1.80
2022-12-16T02:42:09.122Z,-1.79
2022-12-16T02:44:57.656Z,-1.77
2022-12-16T02:47:24.511Z,-1.76
2022-12-16T02:49:53.591Z,-1.77
2022-12-16T02:52:38.441Z,-1.78
2022-12-16T02:55:08.422Z,-1.75
2022-12-16T02:57:48.957Z,-1.74
2022-12-16T03:00:21.260Z,-1.75
2022-12-16T03:03:01.362Z,-1.74
2022-12-16T03:05:35.713Z,-1.72
2022-12-16T03:08:07.101Z,-1.69
2022-12-16T03:10:44.720Z,-1.66
2022-12-16T03:13:13.654Z,-1.68
2022-12-16T03:15:42.655Z,-1.76
2022-12-16T03:18:13.179Z,-1.89
2022-12-16T03:20:56.570Z,-1.97
2022-12-16T03:23:40.339Z,-2.10
2022-12-16T03:26:09.767Z,-2.15
2022-12-16T03:29:02.274Z,-2.19
2022-12-16T03:31:50.763Z,-2.14
2022-12-16T03:34:38.559Z,-2.20
2022-12-16T03:37:08.837Z,-2.28
2022-12-16T03:39:41.768Z,-2.24
2022-12-16T03:42:09.667Z,-2.20
2022-12-16T03:44:36.598Z,-2.14
2022-12-16T03:47:03.258Z,-2.12
2022-12-16T03:49:29.789Z,-2.15
2022-12-16T03:51:56.350Z,-2.14
2022-12-16T03:54:23.756Z,-2.14
2022-12-16T03:56:50.715Z,-2.11
2022-12-16T03:59:17.528Z,-2.04
2022-12-16T04:01:44.345Z,-2.03
2022-12-16T04:04:11.457Z,-2.04
2022-12-16T04:06:38.164Z,-2.00
2022-12-16T04:09:04.865Z,-2.00
2022-12-16T04:11:50.007Z,-2.10
2022-12-16T04:14:35.434Z,-2.23
2022-12-16T04:17:20.848Z,-2.33
2022-12-16T04:20:06.402Z,-2.32
2022-12-16T04:22:55.337Z,-2.30
2022-12-16T04:25:29.335Z,-2.17
2022-12-16T04:27:57.942Z,-2.19
2022-12-16T04:30:27.022Z,-2.28
2022-12-16T04:33:17.157Z,-2.32
2022-12-16T04:36:02.653Z,-2.26
2022-12-16T04:38:48.064Z,-2.18
2022-12-16T04:41:33.670Z,-2.11
2022-12-16T04:44:19.133Z,-2.07
2022-12-16T04:47:04.663Z,-2.03
2022-12-16T04:49:50.332Z,-2.00
2022-12-16T04:52:36.761Z,-2.01
2022-12-16T04:55:23.178Z,-1.95
2022-12-16T04:58:13.374Z,-2.02
2022-12-16T05:00:59.252Z,-2.04
2022-12-16T05:03:45.291Z,-1.97
2022-12-16T05:06:31.445Z,-1.90
2022-12-16T05:09:16.898Z,-1.85
2022-12-16T05:12:02.813Z,-1.82
2022-12-16T05:14:48.230Z,-1.81
2022-12-16T05:17:34.187Z,-1.77
2022-12-16T05:20:19.675Z,-1.71
2022-12-16T05:23:05.097Z,-1.73
2022-12-16T05:25:50.352Z,-1.73
2022-12-16T05:28:36.991Z,-1.68
2022-12-16T05:31:22.413Z,-1.58
2022-12-16T05:34:08.005Z,-1.60
2022-12-16T05:36:53.475Z,-1.56
2022-12-16T05:39:38.495Z,-1.50
2022-12-16T05:42:24.068Z,-1.45
2022-12-16T05:45:09.166Z,-1.58
2022-12-16T05:47:54.868Z,-1.77
2022-12-16T05:50:39.777Z,-1.92
2022-12-16T05:53:27.853Z,-1.95
2022-12-16T05:56:13.435Z,-2.06
2022-12-16T05:58:58.306Z,-2.15
2022-12-16T06:01:43.512Z,-2.16
2022-12-16T06:04:28.704Z,-2.14
2022-12-16T06:07:13.694Z,-2.18
2022-12-16T06:09:58.796Z,-2.18
2022-12-16T06:12:43.778Z,-2.17
2022-12-16T06:15:29.084Z,-2.22
2022-12-16T06:18:14.053Z,-2.17
2022-12-16T06:20:59.559Z,-2.11
2022-12-16T06:23:44.383Z,-2.11
2022-12-16T06:26:29.972Z,-1.85
2022-12-16T06:29:15.582Z,-1.69
2022-12-16T06:32:00.628Z,-1.27
2022-12-16T06:34:45.723Z,-1.29
2022-12-16T06:37:30.713Z,-1.49
2022-12-16T06:40:15.844Z,-1.71
2022-12-16T06:43:00.885Z,-1.88
2022-12-16T06:45:46.588Z,-2.03
2022-12-16T06:48:32.261Z,-2.16
2022-12-16T06:51:17.296Z,-2.25
2022-12-16T06:54:02.432Z,-2.35
2022-12-16T06:56:47.433Z,-2.41
2022-12-16T06:59:32.522Z,-2.46
2022-12-16T07:02:17.368Z,-2.49
2022-12-16T07:05:02.692Z,-2.53
2022-12-16T07:07:47.783Z,-2.59
2022-12-16T07:10:33.091Z,-2.64
2022-12-16T07:13:18.651Z,-2.65
2022-12-16T07:16:04.684Z,-2.64
2022-12-16T07:19:00.599Z,-2.63
2022-12-16T07:21:45.677Z,-2.61
2022-12-16T07:24:30.636Z,-2.63
2022-12-16T07:27:15.578Z,-2.64
2022-12-16T07:30:00.708Z,-2.67
2022-12-16T07:32:45.770Z,-2.68
2022-12-16T07:35:30.926Z,-2.70
2022-12-16T07:38:15.799Z,-2.68
2022-12-16T07:41:00.736Z,-2.69
2022-12-16T07:43:46.324Z,-2.67
2022-12-16T07:46:31.881Z,-2.61
2022-12-16T07:49:17.344Z,-2.57
2022-12-16T07:52:06.666Z,-2.53
2022-12-16T07:54:51.786Z,-2.50
2022-12-16T07:57:38.154Z,-2.47
2022-12-16T08:00:24.136Z,-2.43
2022-12-16T08:03:12.838Z,-2.43
2022-12-16T08:05:58.456Z,-2.42
2022-12-16T08:08:43.989Z,-2.45
2022-12-16T08:11:28.852Z,-2.47
2022-12-16T08:14:14.389Z,-2.41
2022-12-16T08:16:59.787Z,-2.33
2022-12-16T08:19:45.135Z,-2.32
2022-12-16T08:22:43.843Z,-2.32
2022-12-16T08:25:28.825Z,-2.33
2022-12-16T08:28:14.603Z,-2.28
2022-12-16T08:31:00.488Z,-2.21
2022-12-16T08:33:45.545Z,-2.16
2022-12-16T08:36:30.374Z,-2.10
2022-12-16T08:39:15.542Z,-2.08
2022-12-16T08:42:00.810Z,-2.07
2022-12-16T08:44:45.942Z,-2.06
2022-12-16T08:47:31.054Z,-2.07
2022-12-16T08:50:16.160Z,-2.12
2022-12-16T08:53:01.284Z,-2.24
2022-12-16T08:55:46.252Z,-2.31
2022-12-16T08:58:31.709Z,-2.25
2022-12-16T09:01:17.261Z,-2.23
2022-12-16T09:04:02.764Z,-2.29
2022-12-16T09:06:48.412Z,-2.27
2022-12-16T09:09:33.789Z,-2.24
2022-12-16T09:12:18.842Z,-2.17
2022-12-16T09:15:11.297Z,-2.13
2022-12-16T09:17:56.753Z,-2.18
2022-12-16T09:20:42.280Z,-2.24
2022-12-16T09:23:28.016Z,-2.26
2022-12-16T09:26:13.087Z,-2.25
2022-12-16T09:28:58.519Z,-2.23
2022-12-16T09:31:44.026Z,-2.19
2022-12-16T09:34:29.088Z,-2.09
2022-12-16T09:37:14.546Z,-2.00
2022-12-16T09:39:59.685Z,-1.92
2022-12-16T09:43:00.245Z,-1.83
2022-12-16T09:45:51.525Z,-1.83
2022-12-16T09:49:06.865Z,-1.92
2022-12-16T09:51:55.275Z,-2.04
2022-12-16T09:54:45.028Z,-2.03
2022-12-16T09:57:32.444Z,-1.93
2022-12-16T10:00:22.339Z,-1.89
2022-12-16T10:03:09.172Z,-1.87
2022-12-16T10:06:10.674Z,-1.83
2022-12-16T10:09:23.393Z,-1.85
2022-12-16T10:13:08.189Z,-1.87
2022-12-16T10:16:05.388Z,-1.78
2022-12-16T10:19:13.627Z,-1.64
2022-12-16T10:22:13.772Z,-1.54
2022-12-16T10:25:23.240Z,-1.38
2022-12-16T10:28:15.845Z,-1.27
2022-12-16T10:31:01.500Z,-1.28
2022-12-16T10:33:47.987Z,-1.22
2022-12-16T10:36:39.853Z,-1.11
2022-12-16T10:39:47.197Z,-1.11
2022-12-16T10:42:54.972Z,-1.27
2022-12-16T10:45:48.654Z,-1.33
2022-12-16T10:48:45.686Z,-1.33
2022-12-16T10:51:39.449Z,-1.34
2022-12-16T10:54:39.800Z,-1.40
2022-12-16T10:57:53.068Z,-1.37
2022-12-16T11:00:56.111Z,-1.39
2022-12-16T11:03:59.771Z,-1.40
2022-12-16T11:06:54.337Z,-1.44
2022-12-16T11:09:47.568Z,-1.44
2022-12-16T11:12:32.606Z,-1.47
2022-12-16T11:15:29.007Z,-1.40
2022-12-16T11:18:24.821Z,-1.27
2022-12-16T11:21:31.173Z,-1.19
2022-12-16T11:24:25.686Z,-1.09
2022-12-16T11:27:15.669Z,-1.05
2022-12-16T11:30:15.240Z,-1.07
2022-12-16T11:33:06.148Z,-1.00
2022-12-16T11:35:55.004Z,-1.03
2022-12-16T11:38:41.484Z,-1.09
2022-12-16T11:41:37.608Z,-1.16
2022-12-16T11:44:23.790Z,-1.17
2022-12-16T11:47:09.185Z,-1.19
2022-12-16T11:49:54.293Z,-1.31
2022-12-16T11:52:41.270Z,-1.43
2022-12-16T11:56:04.954Z,-1.47
2022-12-16T11:58:55.424Z,-1.41
2022-12-16T12:01:50.911Z,-1.47
2022-12-16T12:04:36.771Z,-1.49
2022-12-16T12:07:27.704Z,-1.58
2022-12-16T12:10:24.975Z,-1.66
2022-12-16T12:13:23.473Z,-1.69
2022-12-16T12:16:25.642Z,-1.71
2022-12-16T12:19:43.884Z,-1.75
2022-12-16T12:22:55.848Z,-1.76
2022-12-16T12:26:02.550Z,-1.71
2022-12-16T12:29:08.279Z,-1.64
2022-12-16T12:32:00.754Z,-1.67
2022-12-16T12:34:51.756Z,-1.68
2022-12-16T12:37:40.941Z,-1.63
2022-12-16T12:40:44.078Z,-1.63
2022-12-16T12:43:44.974Z,-1.60
2022-12-16T12:46:39.301Z,-1.62
2022-12-16T12:49:27.251Z,-1.68
2022-12-16T12:52:39.096Z,-1.85
2022-12-16T12:55:43.729Z,-1.92
2022-12-16T12:58:32.696Z,-1.99
2022-12-16T13:01:20.210Z,-2.03
2022-12-16T13:04:24.754Z,-2.05
2022-12-16T13:07:10.307Z,-2.09
2022-12-16T13:09:57.316Z,-2.11
2022-12-16T13:12:48.920Z,-2.15
2022-12-16T13:15:58.794Z,-2.20
2022-12-16T13:18:48.397Z,-2.20
2022-12-16T13:23:47.003Z,-2.23
2022-12-16T13:26:36.406Z,-2.30
2022-12-16T13:29:48.940Z,-2.32
2022-12-16T13:32:40.527Z,-2.34
2022-12-16T13:35:26.976Z,-2.36
2022-12-16T13:38:19.566Z,-2.37
2022-12-16T13:41:14.624Z,-2.37
2022-12-16T13:44:11.335Z,-2.35
2022-12-16T13:47:06.899Z,-2.38
2022-12-16T13:50:03.147Z,-2.46
2022-12-16T13:52:58.885Z,-2.47
2022-12-16T13:56:04.804Z,-2.44
2022-12-16T13:59:10.365Z,-2.39
2022-12-16T14:02:10.699Z,-2.41
2022-12-16T14:05:06.803Z,-2.45
2022-12-16T14:08:13.775Z,-2.49
2022-12-16T14:11:01.664Z,-2.50
2022-12-16T14:14:05.001Z,-2.49
2022-12-16T14:16:57.721Z,-2.53
2022-12-16T14:19:58.260Z,-2.56
2022-12-16T14:23:17.971Z,-2.57
2022-12-16T14:26:17.511Z,-2.59
2022-12-16T14:29:06.663Z,-2.60
2022-12-16T14:31:58.554Z,-2.59
2022-12-16T14:34:51.249Z,-2.55
2022-12-16T14:37:56.410Z,-2.54
2022-12-16T14:40:51.083Z,-2.51
2022-12-16T14:43:43.732Z,-2.43
2022-12-16T14:46:50.890Z,-2.33
2022-12-16T14:49:43.762Z,-2.28
2022-12-16T14:52:42.746Z,-2.30
2022-12-16T14:55:45.417Z,-2.33
2022-12-16T14:58:33.757Z,-2.33
2022-12-16T15:01:39.595Z,-2.31
2022-12-16T15:04:36.998Z,-2.36
2022-12-16T15:07:31.690Z,-2.40
2022-12-16T15:10:19.426Z,-2.40
2022-12-16T15:13:08.206Z,-2.41
2022-12-16T15:16:07.363Z,-2.40
2022-12-16T15:19:05.193Z,-2.44
2022-12-16T15:21:53.483Z,-2.46
2022-12-16T15:24:43.585Z,-2.44
2022-12-16T15:27:42.346Z,-2.42
2022-12-16T15:30:51.240Z,-2.40
2022-12-16T15:33:40.950Z,-2.41
2022-12-16T15:36:46.763Z,-2.38
2022-12-16T15:39:48.465Z,-2.36
2022-12-16T15:42:51.644Z,-2.38
2022-12-16T15:45:49.893Z,-2.35
2022-12-16T15:48:38.353Z,-2.31
2022-12-16T15:51:45.423Z,-2.29
2022-12-16T15:54:37.632Z,-2.23
2022-12-16T15:57:46.761Z,-2.17
2022-12-16T16:00:40.356Z,-2.15
2022-12-16T16:03:42.113Z,-2.19
2022-12-16T16:06:47.306Z,-2.25
2022-12-16T16:09:46.565Z,-2.30
2022-12-16T16:12:35.650Z,-2.36
2022-12-16T16:15:24.099Z,-2.38
2022-12-16T16:18:19.978Z,-2.35
2022-12-16T16:21:07.180Z,-2.37
2022-12-16T16:23:54.062Z,-2.36
2022-12-16T16:26:45.628Z,-2.33
2022-12-16T16:29:32.593Z,-2.29
2022-12-16T16:32:20.511Z,-2.30
2022-12-16T16:35:07.142Z,-2.35
2022-12-16T16:37:53.359Z,-2.30
2022-12-16T16:40:54.182Z,-2.27
2022-12-16T16:43:41.863Z,-2.19
2022-12-16T16:46:50.810Z,-2.18
2022-12-16T16:49:41.712Z,-2.17
2022-12-16T16:52:34.568Z,-2.20
2022-12-16T16:55:22.130Z,-2.25
2022-12-16T16:58:09.286Z,-2.22
2022-12-16T17:00:55.773Z,-2.23
2022-12-16T17:03:42.882Z,-2.24
2022-12-16T17:06:30.014Z,-2.21
2022-12-16T17:09:16.855Z,-2.23
2022-12-16T17:12:03.303Z,-2.27
2022-12-16T17:14:49.784Z,-2.30
2022-12-16T17:17:36.449Z,-2.33
2022-12-16T17:20:23.693Z,-2.30
2022-12-16T17:23:10.160Z,-2.21
2022-12-16T17:25:56.525Z,-2.16
2022-12-16T17:28:43.213Z,-2.19
2022-12-16T17:31:30.110Z,-2.23
2022-12-16T17:34:17.378Z,-2.22
2022-12-16T17:37:04.053Z,-2.25
2022-12-16T17:39:51.017Z,-2.24
2022-12-16T17:42:39.503Z,-2.25
2022-12-16T17:45:29.682Z,-2.28
2022-12-16T17:48:16.304Z,-2.28
2022-12-16T17:51:02.746Z,-2.24
2022-12-16T17:53:52.512Z,-2.20
2022-12-16T17:56:42.105Z,-2.18
2022-12-16T17:59:29.214Z,-2.15
2022-12-16T18:02:16.025Z,-2.17
2022-12-16T18:05:02.934Z,-2.20
2022-12-16T18:07:52.301Z,-2.22
2022-12-16T18:10:39.025Z,-2.28
2022-12-16T18:13:25.756Z,-2.35
2022-12-16T18:16:12.998Z,-2.35
2022-12-16T18:19:10.289Z,-2.26
2022-12-16T18:21:58.201Z,-2.19
2022-12-16T18:24:48.383Z,-2.12
2022-12-16T18:27:35.855Z,-2.16
2022-12-16T18:30:23.154Z,-2.20
2022-12-16T18:33:09.902Z,-2.20
2022-12-16T18:35:56.358Z,-2.18
2022-12-16T18:38:42.981Z,-2.18
2022-12-16T18:41:35.760Z,-2.19
2022-12-16T18:44:24.325Z,-2.20
2022-12-16T18:47:11.368Z,-2.23
2022-12-16T18:49:57.746Z,-2.24
2022-12-16T18:52:44.630Z,-2.27
2022-12-16T18:55:31.790Z,-2.28
2022-12-16T18:58:49.232Z,-2.31
2022-12-16T19:01:28.660Z,-2.35
2022-12-16T19:04:15.969Z,-2.37
2022-12-16T19:07:02.597Z,-2.46
2022-12-16T19:09:49.307Z,-2.52
2022-12-16T19:12:35.754Z,-2.52
2022-12-16T19:15:22.228Z,-2.48
2022-12-16T19:18:08.650Z,-2.46
2022-12-16T19:20:56.765Z,-2.46
2022-12-16T19:23:43.390Z,-2.45
2022-12-16T19:26:29.914Z,-2.48
2022-12-16T19:29:16.553Z,-2.50
2022-12-16T19:32:03.182Z,-2.48
2022-12-16T19:34:51.474Z,-2.50
2022-12-16T19:37:38.713Z,-2.53
2022-12-16T19:40:40.513Z,-2.56
2022-12-16T19:43:26.873Z,-2.55
2022-12-16T19:46:14.550Z,-2.56
2022-12-16T19:49:01.224Z,-2.56
2022-12-16T19:51:48.408Z,-2.53
2022-12-16T19:54:35.055Z,-2.49
2022-12-16T19:57:22.386Z,-2.54
2022-12-16T20:00:09.032Z,-2.63
2022-12-16T20:03:01.025Z,-2.66
2022-12-16T20:05:48.878Z,-2.67
2022-12-16T20:08:35.343Z,-2.66
2022-12-16T20:11:36.236Z,-2.70
2022-12-16T20:14:23.260Z,-2.67
2022-12-16T20:17:10.292Z,-2.72
2022-12-16T20:19:56.740Z,-2.82
2022-12-16T20:22:53.797Z,-2.90
2022-12-16T20:25:43.238Z,-2.96
2022-12-16T20:28:31.784Z,-2.99
2022-12-16T20:31:24.338Z,-3.00
2022-12-16T20:34:14.460Z,-3.01
2022-12-16T20:37:01.683Z,-3.04
2022-12-16T20:39:56.375Z,-3.06
2022-12-16T20:42:45.028Z,-3.07
2022-12-16T20:45:31.913Z,-3.04
2022-12-16T20:48:19.314Z,-3.04
2022-12-16T20:51:22.624Z,-3.03
2022-12-16T20:54:13.875Z,-3.05
2022-12-16T20:57:00.471Z,-3.09
2022-12-16T20:59:47.160Z,-3.15
2022-12-16T21:02:34.475Z,-3.14
2022-12-16T21:05:22.246Z,-3.12
2022-12-16T21:08:08.604Z,-3.10
2022-12-16T21:10:56.438Z,-3.09
2022-12-16T21:13:43.714Z,-3.03
2022-12-16T21:16:30.585Z,-3.05
2022-12-16T21:19:17.446Z,-3.08
2022-12-16T21:22:04.145Z,-3.07
2022-12-16T21:24:50.447Z,-3.10
2022-12-16T21:27:37.124Z,-3.14
2022-12-16T21:30:24.332Z,-3.16
2022-12-16T21:33:12.133Z,-3.13
2022-12-16T21:35:58.566Z,-3.10
2022-12-16T21:38:45.339Z,-3.12
2022-12-16T21:41:31.629Z,-3.11
2022-12-16T21:44:18.081Z,-3.09
2022-12-16T21:47:04.503Z,-2.97
2022-12-16T21:49:51.717Z,-2.63
2022-12-16T21:52:38.506Z,-2.29
2022-12-16T21:55:25.691Z,-2.27
2022-12-16T21:58:14.321Z,-2.35
2022-12-16T22:01:00.976Z,-2.06
2022-12-16T22:03:54.569Z,-1.49
2022-12-16T22:06:48.467Z,-1.21
2022-12-16T22:09:35.970Z,-1.46
2022-12-16T22:12:22.691Z,-1.72
2022-12-16T22:15:09.311Z,-1.89
2022-12-16T22:17:58.635Z,-1.98
2022-12-16T22:20:45.494Z,-2.10
2022-12-16T22:23:31.972Z,-2.20
2022-12-16T22:26:19.650Z,-2.29
2022-12-16T22:29:06.487Z,-2.44
2022-12-16T22:31:52.646Z,-2.52
2022-12-16T22:34:39.397Z,-2.55
2022-12-16T22:37:25.887Z,-2.58
2022-12-16T22:40:12.252Z,-2.65
2022-12-16T22:42:58.679Z,-2.71
2022-12-16T22:45:44.901Z,-2.76
2022-12-16T22:48:31.777Z,-2.79
2022-12-16T22:51:18.012Z,-2.81
2022-12-16T22:54:08.374Z,-2.85
2022-12-16T22:56:57.276Z,-2.93
2022-12-16T22:59:44.046Z,-2.99
2022-12-16T23:02:30.537Z,-3.01
2022-12-16T23:05:18.389Z,-2.97
2022-12-16T23:08:06.960Z,-2.93
2022-12-16T23:10:53.413Z,-2.96
2022-12-16T23:13:44.484Z,-3.02
2022-12-16T23:16:31.897Z,-3.07
2022-12-16T23:19:18.859Z,-3.06
2022-12-16T23:22:07.509Z,-3.03
2022-12-16T23:24:54.106Z,-2.97
2022-12-16T23:27:40.644Z,-2.90
2022-12-16T23:30:27.881Z,-2.87
2022-12-16T23:33:19.252Z,-2.80
2022-12-16T23:36:06.080Z,-2.79
2022-12-16T23:38:53.411Z,-2.77
2022-12-16T23:41:39.627Z,-2.71
2022-12-16T23:44:25.838Z,-2.67
2022-12-16T23:47:12.827Z,-2.62
2022-12-16T23:49:59.162Z,-2.55
2022-12-16T23:52:45.940Z,-2.51
2022-12-16T23:55:32.788Z,-2.45
2022-12-16T23:58:21.218Z,-2.50
